Time;durP1;ratioP1;P1;durP2;ratioP2;P2;SDS_P1;SDS_P2;PMS_P1;PMS_P2;Temp;Humidity;BMP_temperature;BMP_pressure;BME280_temperature;BME280_humidity;BME280_pressure;Samples;Min_cycle;Max_cycle;Signal;HPM_P1;HPM_P2
2023/04/18 00:01:47;;;;;;;2.20;1.73;;;;;;;16.10;53.72;99333.44;4495516;31;33658;-60
2023/04/18 00:04:16;;;;;;;1.85;1.20;;;;;;;16.03;53.79;99335.94;4496286;31;33340;-61
2023/04/18 00:06:46;;;;;;;0.80;0.73;;;;;;;16.35;53.03;99344.38;4495625;31;34505;-59
2023/04/18 00:09:13;;;;;;;2.47;1.48;;;;;;;16.79;51.99;99336.13;4494374;31;35088;-60
2023/04/18 00:11:41;;;;;;;2.37;1.52;;;;;;;16.91;51.49;99337.50;4492048;31;33463;-60
2023/04/18 00:14:09;;;;;;;0.93;0.70;;;;;;;16.45;52.84;99340.53;4484990;31;33468;-59
2023/04/18 00:16:37;;;;;;;1.48;0.85;;;;;;;16.33;53.36;99336.44;4491816;31;32397;-59
2023/04/18 00:19:05;;;;;;;3.67;2.00;;;;;;;16.60;52.52;99342.66;4488694;31;33831;-59
2023/04/18 00:21:33;;;;;;;3.37;1.73;;;;;;;16.81;52.18;99343.06;4488693;31;34659;-59
2023/04/18 00:24:00;;;;;;;1.10;0.65;;;;;;;16.51;53.21;99341.75;4489954;31;34314;-59
2023/04/18 00:26:28;;;;;;;0.95;0.75;;;;;;;16.31;54.04;99346.56;4491325;31;33741;-59
2023/04/18 00:28:56;;;;;;;2.97;1.30;;;;;;;16.66;53.18;99344.66;4496312;31;34915;-60
2023/04/18 00:31:24;;;;;;;1.98;1.20;;;;;;;16.77;52.58;99337.16;4497577;31;34152;-60
2023/04/18 00:33:52;;;;;;;1.62;1.15;;;;;;;16.89;52.14;99342.25;4489716;31;34467;-60
2023/04/18 00:36:23;;;;;;;2.60;1.37;;;;;;;16.78;52.43;99340.69;4498343;31;32762;-59
2023/04/18 00:38:50;;;;;;;1.95;1.12;;;;;;;16.92;52.57;99340.06;4495146;31;34148;-61
2023/04/18 00:41:19;;;;;;;1.77;1.08;;;;;;;16.95;52.03;99337.03;4491047;31;33831;-60
2023/04/18 00:43:46;;;;;;;1.95;1.35;;;;;;;17.07;51.66;99340.25;4483529;31;32129;-61
2023/04/18 00:46:14;;;;;;;4.10;1.85;;;;;;;17.10;51.64;99342.62;4486784;31;33792;-59
2023/04/18 00:48:41;;;;;;;2.08;1.02;;;;;;;16.27;52.53;99345.16;4488244;31;34243;-60
2023/04/18 00:51:10;;;;;;;1.95;1.33;;;;;;;16.46;52.26;99344.09;4497839;31;33674;-62
2023/04/18 00:53:38;;;;;;;2.00;1.40;;;;;;;15.71;53.58;99341.12;4487107;31;34511;-60
2023/04/18 00:56:06;;;;;;;3.62;1.75;;;;;;;16.12;52.87;99338.69;4486208;31;33734;-61
2023/04/18 00:58:34;;;;;;;1.85;1.20;;;;;;;15.61;53.90;99344.72;4496770;31;34891;-61
2023/04/18 01:01:01;;;;;;;1.67;1.00;;;;;;;15.55;53.90;99339.97;4487879;31;34905;-61
2023/04/18 01:03:29;;;;;;;7.53;1.70;;;;;;;15.08;55.58;99340.19;4492567;31;32940;-61
2023/04/18 01:05:57;;;;;;;4.57;2.20;;;;;;;15.64;54.39;99331.94;4489270;31;33858;-60
2023/04/18 01:08:26;;;;;;;3.40;1.60;;;;;;;15.76;53.65;99331.56;4493750;31;33734;-60
2023/04/18 01:10:56;;;;;;;2.75;1.75;;;;;;;15.92;53.32;99336.22;4495140;31;33740;-61
2023/04/18 01:13:24;;;;;;;2.75;1.70;;;;;;;15.34;54.80;99339.44;4486610;31;33256;-60
2023/04/18 01:15:53;;;;;;;1.35;1.00;;;;;;;15.29;54.96;99344.47;4489209;31;33797;-61
2023/04/18 01:18:21;;;;;;;3.08;1.75;;;;;;;15.89;53.09;99330.28;4484940;31;34287;-62
2023/04/18 01:20:50;;;;;;;1.65;1.50;;;;;;;15.86;53.14;99336.84;4492547;31;33747;-62
2023/04/18 01:23:19;;;;;;;4.53;2.10;;;;;;;15.89;53.02;99331.16;4493679;31;32437;-61
2023/04/18 01:25:50;;;;;;;5.47;1.85;;;;;;;15.72;53.47;99338.25;4489303;31;33556;-61
2023/04/18 01:28:20;;;;;;;2.50;1.75;;;;;;;15.60;53.73;99348.44;4494313;31;32650;-60
2023/04/18 01:30:48;;;;;;;4.55;2.33;;;;;;;15.71;53.45;99343.81;4500420;31;34507;-61
2023/04/18 01:33:15;;;;;;;2.30;1.55;;;;;;;16.05;52.65;99336.63;4490588;31;34662;-61
2023/04/18 01:35:43;;;;;;;2.55;1.50;;;;;;;15.73;53.22;99344.50;4484052;31;33855;-62
2023/04/18 01:38:11;;;;;;;2.40;1.58;;;;;;;15.69;53.77;99346.66;4491527;31;35175;-61
2023/04/18 01:40:38;;;;;;;1.80;1.20;;;;;;;15.64;53.69;99337.34;4495794;31;33823;-60
2023/04/18 01:43:06;;;;;;;5.97;2.22;;;;;;;15.52;53.81;99342.12;4492786;31;32195;-61
2023/04/18 01:45:36;;;;;;;3.30;1.70;;;;;;;15.17;54.96;99351.91;4485060;31;33286;-62
2023/04/18 01:48:04;;;;;;;2.45;1.30;;;;;;;15.17;54.76;99343.84;4496179;31;34147;-62
2023/04/18 01:50:32;;;;;;;2.85;1.58;;;;;;;15.08;55.18;99342.91;4479156;31;33982;-62
2023/04/18 01:53:00;;;;;;;2.12;1.48;;;;;;;14.97;55.33;99345.00;4481241;31;33251;-60
2023/04/18 01:55:27;;;;;;;1.60;1.00;;;;;;;14.54;57.00;99346.50;4486556;31;33934;-61
2023/04/18 01:57:54;;;;;;;2.42;1.17;;;;;;;15.02;56.04;99346.19;4488138;31;33000;-60
2023/04/18 02:00:22;;;;;;;4.28;2.92;;;;;;;15.20;56.12;99346.22;4489326;31;34755;-60
2023/04/18 02:02:49;;;;;;;7.28;1.85;;;;;;;15.05;57.15;99353.97;4484518;31;33116;-60
2023/04/18 02:05:20;;;;;;;3.45;1.60;;;;;;;14.83;57.77;99355.28;4491468;31;33649;-60
2023/04/18 02:07:49;;;;;;;1.33;1.08;;;;;;;15.40;56.49;99343.38;4488587;31;34001;-59
2023/04/18 02:10:16;;;;;;;2.45;1.52;;;;;;;15.36;56.49;99346.37;4487110;31;32527;-60
2023/04/18 02:12:44;;;;;;;3.00;1.42;;;;;;;14.93;57.26;99352.53;4490080;31;33615;-61
2023/04/18 02:15:12;;;;;;;1.75;1.20;;;;;;;15.05;56.65;99355.84;4489933;31;34964;-60
2023/04/18 02:17:40;;;;;;;2.70;1.60;;;;;;;15.26;55.94;99350.16;4488575;31;33849;-60
2023/04/18 02:20:09;;;;;;;2.65;1.27;;;;;;;14.79;57.07;99353.03;4484241;31;34966;-60
2023/04/18 02:22:38;;;;;;;2.58;1.55;;;;;;;15.07;56.31;99354.69;4493647;31;34633;-62
2023/04/18 02:25:06;;;;;;;3.25;1.55;;;;;;;15.09;56.56;99357.25;4490027;31;33659;-60
2023/04/18 02:27:33;;;;;;;3.80;1.92;;;;;;;14.92;56.92;99350.81;4494751;31;35116;-62
2023/04/18 02:30:01;;;;;;;3.12;2.08;;;;;;;15.02;56.70;99356.97;4493849;31;33898;-61
2023/04/18 02:32:32;;;;;;;3.60;1.10;;;;;;;15.19;55.75;99354.47;4494111;31;33283;-60
2023/04/18 02:35:00;;;;;;;1.00;0.90;;;;;;;15.05;56.81;99359.38;4489827;31;33810;-60
2023/04/18 02:37:28;;;;;;;1.17;1.05;;;;;;;15.44;55.15;99355.53;4486211;31;35182;-61
2023/04/18 02:39:56;;;;;;;4.18;2.00;;;;;;;15.47;55.22;99347.13;4482588;31;33685;-60
2023/04/18 02:42:23;;;;;;;3.15;2.03;;;;;;;15.40;55.09;99352.28;4495112;31;34570;-60
2023/04/18 02:44:50;;;;;;;1.55;1.35;;;;;;;15.39;55.53;99353.31;4489264;31;33385;-61
2023/04/18 02:47:18;;;;;;;2.72;1.55;;;;;;;15.19;55.87;99355.31;4495412;31;34034;-60
2023/04/18 02:49:46;;;;;;;5.87;1.90;;;;;;;15.64;54.19;99350.81;4491947;31;33704;-61
2023/04/18 02:52:13;;;;;;;4.85;1.87;;;;;;;15.39;54.67;99361.41;4485167;31;33346;-61
2023/04/18 02:54:41;;;;;;;2.33;1.42;;;;;;;14.98;56.17;99354.75;4486471;31;33334;-60
2023/04/18 02:57:09;;;;;;;2.75;2.15;;;;;;;15.51;54.88;99356.62;4487489;31;33911;-60
2023/04/18 02:59:37;;;;;;;4.45;1.85;;;;;;;15.87;53.67;99364.69;4485942;31;33621;-62
2023/04/18 03:02:06;;;;;;;1.77;1.10;;;;;;;14.89;56.07;99364.59;4487284;31;34357;-62
2023/04/18 03:04:34;;;;;;;1.55;1.25;;;;;;;15.49;54.64;99367.53;4490311;31;32764;-61
2023/04/18 03:07:02;;;;;;;3.15;2.05;;;;;;;15.37;54.71;99379.56;4492435;31;33924;-60
2023/04/18 03:09:30;;;;;;;2.30;1.48;;;;;;;15.26;55.14;99380.66;4491004;31;32883;-62
2023/04/18 03:11:58;;;;;;;1.87;1.55;;;;;;;15.56;54.67;99374.00;4497908;31;34570;-60
2023/04/18 03:14:25;;;;;;;4.00;1.65;;;;;;;16.11;53.11;99374.78;4493954;31;33990;-61
2023/04/18 03:16:53;;;;;;;4.85;1.98;;;;;;;16.18;53.32;99378.53;4498903;31;35237;-60
2023/04/18 03:19:22;;;;;;;1.37;0.98;;;;;;;16.13;53.90;99375.47;4490766;31;33624;-61
2023/04/18 03:21:50;;;;;;;5.57;1.75;;;;;;;16.53;53.32;99386.53;4494068;31;34415;-60
2023/04/18 03:24:18;;;;;;;0.85;0.82;;;;;;;16.76;52.97;99376.00;4495677;31;33772;-62
2023/04/18 03:26:46;;;;;;;4.28;1.85;;;;;;;16.66;53.37;99382.50;4496829;31;35122;-61
2023/04/18 03:29:13;;;;;;;1.90;1.37;;;;;;;16.73;53.20;99376.28;4490254;31;33666;-61
2023/04/18 03:31:42;;;;;;;3.37;1.35;;;;;;;16.75;53.64;99381.56;4499062;31;32053;-61
2023/04/18 03:34:10;;;;;;;2.58;1.87;;;;;;;16.74;54.07;99377.97;4491963;31;34643;-61
2023/04/18 03:36:39;;;;;;;4.30;2.75;;;;;;;16.68;52.89;99385.88;4486723;31;33914;-61
2023/04/18 03:39:07;;;;;;;1.87;1.15;;;;;;;16.26;53.99;99387.53;4488367;31;32687;-61
2023/04/18 03:41:34;;;;;;;4.15;2.03;;;;;;;16.70;52.99;99392.84;4484317;31;32867;-61
2023/04/18 03:44:02;;;;;;;3.50;2.10;;;;;;;16.67;53.11;99384.22;4492204;31;33702;-62
2023/04/18 03:46:32;;;;;;;2.17;1.40;;;;;;;16.81;52.75;99386.31;4497783;31;35664;-61
2023/04/18 03:49:00;;;;;;;4.12;1.80;;;;;;;16.92;53.13;99385.19;4490810;31;34892;-61
2023/04/18 03:51:31;;;;;;;4.12;1.85;;;;;;;16.76;52.74;99385.97;4493134;31;34209;-62
2023/04/18 03:53:59;;;;;;;3.50;2.05;;;;;;;16.90;52.09;99385.34;4494223;31;33140;-61
2023/04/18 03:56:27;;;;;;;3.30;1.98;;;;;;;16.98;52.25;99377.25;4486581;31;33942;-62
2023/04/18 03:58:54;;;;;;;2.60;1.40;;;;;;;16.77;52.81;99376.84;4488860;31;33273;-61
2023/04/18 04:01:22;;;;;;;3.17;1.65;;;;;;;16.53;53.03;99383.81;4489981;31;33449;-62
2023/04/18 04:03:50;;;;;;;4.37;1.08;;;;;;;16.56;53.44;99387.19;4486144;31;33676;-61
2023/04/18 04:06:19;;;;;;;3.05;2.08;;;;;;;16.26;53.75;99386.69;4488706;31;33995;-61
2023/04/18 04:08:46;;;;;;;1.98;1.50;;;;;;;16.56;52.79;99389.88;4486557;31;33907;-60
2023/04/18 04:11:14;;;;;;;3.55;2.08;;;;;;;16.38;53.43;99387.28;4487803;31;33243;-61
2023/04/18 04:13:42;;;;;;;1.23;1.02;;;;;;;16.50;52.96;99394.94;4481942;31;34466;-61
2023/04/18 04:16:10;;;;;;;3.60;2.08;;;;;;;16.04;54.40;99397.00;4488084;31;33911;-61
2023/04/18 04:18:38;;;;;;;2.75;1.87;;;;;;;16.15;53.97;99397.78;4494868;31;32349;-62
2023/04/18 04:21:06;;;;;;;2.08;1.48;;;;;;;16.25;53.79;99395.81;4482992;31;33303;-60
2023/04/18 04:23:34;;;;;;;2.70;1.30;;;;;;;16.27;53.66;99402.72;4487055;31;34530;-59
2023/04/18 04:26:02;;;;;;;2.75;2.00;;;;;;;15.89;54.40;99405.84;4489902;31;33769;-59
2023/04/18 04:28:30;;;;;;;5.20;1.92;;;;;;;16.03;54.05;99405.28;4489670;31;33964;-59
2023/04/18 04:30:58;;;;;;;2.62;1.27;;;;;;;15.53;55.63;99408.53;4484658;31;32116;-59
2023/04/18 04:33:32;;;;;;;2.95;1.85;;;;;;;15.88;54.79;99409.56;4492073;31;34019;-59
2023/04/18 04:36:00;;;;;;;2.55;1.65;;;;;;;15.70;55.03;99415.81;4492431;31;32400;-59
2023/04/18 04:38:29;;;;;;;3.90;3.00;;;;;;;15.84;54.69;99411.72;4493167;31;35218;-59
2023/04/18 04:40:58;;;;;;;3.45;1.90;;;;;;;15.55;55.44;99414.63;4482620;31;33138;-59
2023/04/18 04:43:27;;;;;;;2.55;1.50;;;;;;;15.08;56.73;99420.22;4484309;31;35642;-60
2023/04/18 04:45:56;;;;;;;1.75;1.55;;;;;;;15.55;55.29;99420.03;4493083;31;32882;-60
2023/04/18 04:48:24;;;;;;;1.33;1.23;;;;;;;15.55;54.96;99420.88;4491351;31;33843;-59
2023/04/18 04:50:56;;;;;;;5.37;1.60;;;;;;;15.57;55.35;99418.88;4492397;31;34546;-59
2023/04/18 04:53:25;;;;;;;3.58;2.00;;;;;;;15.51;55.16;99424.06;4492170;31;34007;-59
2023/04/18 04:55:53;;;;;;;3.30;1.85;;;;;;;15.34;55.80;99421.19;4495925;31;34520;-59
2023/04/18 04:58:21;;;;;;;3.10;1.52;;;;;;;15.68;55.02;99425.06;4485847;31;33902;-60
2023/04/18 05:00:54;;;;;;;5.05;3.50;;;;;;;15.49;55.89;99421.50;4489214;31;32369;-59
2023/04/18 05:03:42;;;;;;;2.20;1.75;;;;;;;15.49;55.92;99434.12;4483034;31;32428;-60
2023/04/18 05:06:10;;;;;;;4.55;1.90;;;;;;;15.74;54.62;99436.09;4492258;31;32846;-59
2023/04/18 05:08:37;;;;;;;2.30;1.27;;;;;;;15.71;54.43;99440.94;4494060;31;34779;-59
2023/04/18 05:11:04;;;;;;;3.58;1.25;;;;;;;15.84;54.24;99434.16;4491098;31;33105;-61
2023/04/18 05:13:32;;;;;;;1.40;1.08;;;;;;;15.26;55.40;99425.66;4492752;31;33930;-60
2023/04/18 05:16:00;;;;;;;1.40;1.10;;;;;;;15.06;55.81;99438.41;4492749;31;35283;-59
2023/04/18 05:18:27;;;;;;;2.83;1.30;;;;;;;14.66;57.68;99435.03;4492415;31;35003;-59
2023/04/18 05:20:55;;;;;;;6.85;1.15;;;;;;;14.94;57.62;99436.91;4483828;31;33277;-59
2023/04/18 05:23:23;;;;;;;2.95;1.83;;;;;;;15.03;57.37;99442.25;4495161;31;33766;-60
2023/04/18 05:25:50;;;;;;;3.03;2.10;;;;;;;15.64;56.17;99445.25;4493892;31;33940;-60
2023/04/18 05:28:18;;;;;;;1.55;1.10;;;;;;;15.69;57.02;99442.94;4484259;31;33662;-59
2023/04/18 05:30:45;;;;;;;4.32;2.20;;;;;;;16.24;55.48;99440.00;4488985;31;33409;-60
2023/04/18 05:33:13;;;;;;;2.10;1.73;;;;;;;16.02;56.50;99444.94;4488805;31;33544;-60
2023/04/18 05:35:40;;;;;;;2.95;2.10;;;;;;;16.20;55.92;99441.34;4490485;31;32795;-60
2023/04/18 05:38:08;;;;;;;2.55;1.75;;;;;;;16.48;55.17;99448.28;4491779;31;34753;-60
2023/04/18 05:40:35;;;;;;;4.25;2.75;;;;;;;16.63;54.80;99456.66;4498506;31;34690;-61
2023/04/18 05:43:03;;;;;;;3.28;1.83;;;;;;;16.77;54.54;99447.94;4485528;31;33521;-61
2023/04/18 05:45:31;;;;;;;4.25;2.35;;;;;;;16.75;54.87;99457.22;4485327;31;33732;-59
2023/04/18 05:47:58;;;;;;;4.20;1.67;;;;;;;16.89;54.86;99458.50;4498188;31;33839;-59
2023/04/18 05:50:26;;;;;;;5.97;2.40;;;;;;;16.96;54.52;99454.97;4500223;31;32999;-60
2023/04/18 05:52:53;;;;;;;3.58;2.65;;;;;;;16.94;54.96;99456.97;4498031;31;33559;-60
2023/04/18 05:55:21;;;;;;;4.25;2.75;;;;;;;16.80;55.46;99460.31;4490135;31;34111;-59
2023/04/18 05:57:48;;;;;;;3.95;2.17;;;;;;;17.10;54.97;99456.19;4492882;31;34916;-59
2023/04/18 06:00:16;;;;;;;1.83;1.48;;;;;;;17.16;55.14;99460.09;4485163;31;34197;-59
2023/04/18 06:02:44;;;;;;;5.75;2.80;;;;;;;17.29;54.77;99455.06;4495195;31;35078;-61
2023/04/18 06:05:12;;;;;;;5.57;2.58;;;;;;;16.90;55.97;99458.31;4498085;31;34093;-59
2023/04/18 06:07:40;;;;;;;3.37;1.67;;;;;;;17.22;54.91;99457.59;4496051;31;33717;-60
2023/04/18 06:10:10;;;;;;;1.35;1.08;;;;;;;17.21;54.99;99463.19;4487283;31;33078;-60
2023/04/18 06:12:37;;;;;;;3.42;2.22;;;;;;;17.22;55.19;99459.47;4486756;31;33902;-60
2023/04/18 06:15:05;;;;;;;3.62;1.95;;;;;;;17.16;54.92;99465.50;4487661;31;35172;-60
2023/04/18 06:17:33;;;;;;;4.40;2.55;;;;;;;17.11;54.58;99468.72;4495239;31;33725;-60
2023/04/18 06:20:02;;;;;;;3.22;1.60;;;;;;;16.90;55.08;99473.69;4493637;31;33132;-61
2023/04/18 06:22:30;;;;;;;3.53;1.92;;;;;;;17.21;54.48;99472.12;4489322;31;34822;-60
2023/04/18 06:24:57;;;;;;;2.78;1.75;;;;;;;17.21;53.96;99464.03;4498273;31;32436;-59
2023/04/18 06:27:26;;;;;;;3.53;1.55;;;;;;;17.27;53.85;99467.94;4495954;31;34155;-60
2023/04/18 06:29:58;;;;;;;2.62;1.75;;;;;;;17.31;53.18;99474.69;4484633;31;32355;-60
2023/04/18 06:32:25;;;;;;;4.95;2.20;;;;;;;16.84;54.27;99472.47;4483354;31;35248;-61
2023/04/18 06:34:53;;;;;;;3.17;1.48;;;;;;;17.04;54.16;99472.22;4496425;31;34637;-61
2023/04/18 06:37:21;;;;;;;2.70;1.52;;;;;;;17.08;53.81;99477.16;4500106;31;32750;-60
2023/04/18 06:39:48;;;;;;;3.00;1.90;;;;;;;17.26;53.21;99477.03;4484644;31;33662;-59
2023/04/18 06:42:16;;;;;;;3.53;2.58;;;;;;;17.37;53.35;99474.03;4491803;31;33704;-61
2023/04/18 06:44:46;;;;;;;2.42;1.30;;;;;;;17.29;53.85;99474.00;4488809;31;34968;-60
2023/04/18 06:47:14;;;;;;;2.65;1.42;;;;;;;16.66;51.99;99471.66;4490204;31;33485;-60
2023/04/18 06:49:42;;;;;;;2.25;1.48;;;;;;;16.49;50.99;99482.37;4489770;31;31968;-60
2023/04/18 06:52:09;;;;;;;2.05;1.10;;;;;;;16.42;50.98;99484.03;4493994;31;32556;-61
2023/04/18 06:54:37;;;;;;;2.45;1.17;;;;;;;15.97;50.87;99479.62;4494543;31;33585;-60
2023/04/18 06:57:04;;;;;;;2.50;1.02;;;;;;;16.12;50.49;99488.03;4498765;31;33497;-61
2023/04/18 06:59:32;;;;;;;2.45;0.88;;;;;;;16.32;49.68;99483.28;4495475;31;33600;-61
2023/04/18 07:02:00;;;;;;;2.00;1.35;;;;;;;16.24;49.66;99485.91;4496713;31;33740;-60
2023/04/18 07:04:27;;;;;;;2.62;1.17;;;;;;;15.86;49.72;99485.28;4492456;31;34925;-60
2023/04/18 07:06:55;;;;;;;1.60;0.98;;;;;;;16.22;50.61;99487.94;4490265;31;33819;-60
2023/04/18 07:09:22;;;;;;;1.50;0.98;;;;;;;16.10;49.18;99489.19;4489002;31;34116;-61
2023/04/18 07:11:51;;;;;;;2.65;2.05;;;;;;;16.18;51.18;99489.22;4491124;31;33813;-61
2023/04/18 07:14:21;;;;;;;2.62;1.42;;;;;;;16.48;50.26;99488.78;4497640;31;35169;-59
2023/04/18 07:16:50;;;;;;;1.75;0.85;;;;;;;16.67;49.49;99489.59;4494856;31;33299;-59
2023/04/18 07:19:17;;;;;;;1.73;0.85;;;;;;;16.37;50.01;99494.47;4497126;31;33279;-60
2023/04/18 07:21:45;;;;;;;0.90;0.62;;;;;;;16.40;49.15;99491.44;4494524;31;33830;-59
2023/04/18 07:24:12;;;;;;;2.83;1.33;;;;;;;16.43;48.82;99484.88;4485883;31;35253;-59
2023/04/18 07:26:40;;;;;;;1.45;0.88;;;;;;;15.89;52.08;99487.66;4498158;31;33816;-59
2023/04/18 07:29:08;;;;;;;1.23;1.00;;;;;;;16.66;49.52;99488.75;4497180;31;33618;-61
2023/04/18 07:31:36;;;;;;;1.08;0.95;;;;;;;16.77;48.05;99488.50;4495651;31;33733;-60
2023/04/18 07:34:03;;;;;;;0.70;0.55;;;;;;;16.38;49.13;99509.66;4497756;31;35051;-60
2023/04/18 07:36:31;;;;;;;1.20;0.85;;;;;;;16.40;48.42;99506.78;4498515;31;34884;-61
2023/04/18 07:39:00;;;;;;;2.72;1.12;;;;;;;15.71;50.59;99506.53;4495863;31;33345;-60
2023/04/18 07:41:27;;;;;;;0.85;0.70;;;;;;;16.11;49.19;99510.63;4493409;31;34971;-61
2023/04/18 07:43:55;;;;;;;1.30;0.98;;;;;;;16.22;49.55;99512.25;4485016;31;33872;-61
2023/04/18 07:46:22;;;;;;;1.17;0.88;;;;;;;16.57;49.24;99514.03;4485817;31;33843;-59
2023/04/18 07:48:50;;;;;;;1.55;0.95;;;;;;;16.02;48.91;99514.28;4487674;31;34338;-62
2023/04/18 07:51:17;;;;;;;1.33;0.90;;;;;;;16.25;47.75;99517.34;4485955;31;35263;-61
2023/04/18 07:53:45;;;;;;;1.05;0.60;;;;;;;16.50;47.87;99512.94;4490383;31;35355;-61
2023/04/18 07:56:13;;;;;;;1.15;0.88;;;;;;;16.63;47.73;99510.69;4489534;31;34418;-60
2023/04/18 07:58:41;;;;;;;3.50;1.15;;;;;;;16.68;48.59;99510.19;4486215;31;33387;-60
2023/04/18 08:01:12;;;;;;;1.65;1.17;;;;;;;16.29;48.55;99521.41;4489906;31;33294;-60
2023/04/18 08:03:40;;;;;;;2.65;1.15;;;;;;;16.93;47.47;99520.16;4488237;31;34712;-62
2023/04/18 08:06:08;;;;;;;3.20;1.85;;;;;;;16.02;48.82;99525.06;4490099;31;32794;-60
2023/04/18 08:08:36;;;;;;;0.73;0.52;;;;;;;16.73;48.42;99519.53;4484855;31;33428;-60
2023/04/18 08:11:03;;;;;;;2.05;1.08;;;;;;;17.05;48.28;99525.31;4483929;31;33879;-60
2023/04/18 08:13:31;;;;;;;2.30;1.62;;;;;;;17.00;48.37;99517.66;4489369;31;34010;-60
2023/04/18 08:15:59;;;;;;;5.32;1.73;;;;;;;16.39;48.78;99527.56;4491021;31;34952;-60
2023/04/18 08:18:26;;;;;;;2.65;1.60;;;;;;;15.91;50.37;99528.00;4489978;31;33400;-61
2023/04/18 08:20:54;;;;;;;2.55;1.52;;;;;;;16.23;49.51;99528.28;4496474;31;32726;-60
2023/04/18 08:23:21;;;;;;;1.55;0.88;;;;;;;17.02;48.35;99528.34;4499862;31;32823;-60
2023/04/18 08:25:49;;;;;;;2.15;1.17;;;;;;;16.78;48.38;99527.19;4485208;31;33284;-63
2023/04/18 08:28:17;;;;;;;2.05;1.17;;;;;;;17.01;48.44;99532.88;4493525;31;34478;-64
2023/04/18 08:30:47;;;;;;;2.17;1.00;;;;;;;16.68;48.46;99534.50;4492668;31;35410;-62
2023/04/18 08:33:15;;;;;;;2.25;1.35;;;;;;;16.46;49.06;99538.56;4485258;31;34322;-61
2023/04/18 08:35:43;;;;;;;1.35;1.00;;;;;;;16.95;48.34;99539.78;4488968;31;34527;-62
2023/04/18 08:38:10;;;;;;;5.43;1.23;;;;;;;17.19;46.91;99536.34;4490472;31;33409;-60
2023/04/18 08:40:38;;;;;;;2.17;1.23;;;;;;;17.16;47.16;99535.81;4485849;31;33423;-59
2023/04/18 08:43:11;;;;;;;1.35;0.90;;;;;;;16.87;47.08;99538.88;4488348;31;34961;-60
2023/04/18 08:45:42;;;;;;;1.48;0.95;;;;;;;17.27;46.65;99535.56;4481785;31;33720;-60
2023/04/18 08:48:14;;;;;;;2.28;0.95;;;;;;;17.43;46.07;99538.31;4487410;31;33528;-60
2023/04/18 08:50:42;;;;;;;0.68;0.68;;;;;;;17.49;46.16;99535.94;4486359;31;33976;-60
2023/04/18 08:53:10;;;;;;;1.25;0.80;;;;;;;17.37;47.51;99536.25;4485506;31;35015;-60
2023/04/18 08:55:37;;;;;;;1.70;0.95;;;;;;;17.35;47.70;99527.47;4484655;31;34970;-60
2023/04/18 08:58:05;;;;;;;1.15;0.70;;;;;;;18.02;45.93;99532.06;4489917;31;34386;-60
2023/04/18 09:00:34;;;;;;;0.98;0.77;;;;;;;18.27;44.86;99531.06;4493457;31;35056;-60
2023/04/18 09:03:02;;;;;;;1.35;0.85;;;;;;;18.45;44.11;99539.00;4484026;31;33837;-60
2023/04/18 09:05:30;;;;;;;1.98;1.20;;;;;;;18.38;44.13;99544.25;4482641;31;33980;-60
2023/04/18 09:07:57;;;;;;;1.10;0.85;;;;;;;18.26;43.32;99539.31;4482455;31;33785;-60
2023/04/18 09:10:32;;;;;;;2.33;0.98;;;;;;;18.22;44.58;99546.94;4479659;31;33183;-60
2023/04/18 09:13:02;;;;;;;;;;;;;;;18.28;44.99;99538.16;4483593;31;32301;-60
2023/04/18 09:15:30;;;;;;;1.17;0.85;;;;;;;18.49;44.51;99545.78;4481477;31;35115;-60
2023/04/18 09:18:01;;;;;;;2.72;1.30;;;;;;;19.06;42.82;99529.41;4483399;31;33261;-60
2023/04/18 09:20:42;;;;;;;11.35;2.17;;;;;;;18.98;43.66;99531.31;4483738;31;33679;-60
2023/04/18 09:23:13;;;;;;;3.90;1.52;;;;;;;18.58;43.84;99528.47;4480369;31;33456;-60
2023/04/18 09:25:47;;;;;;;2.05;0.80;;;;;;;19.18;42.96;99535.31;4480407;31;34954;-60
2023/04/18 09:28:36;;;;;;;1.50;1.02;;;;;;;18.87;42.44;99537.09;4480464;31;31669;-60
2023/04/18 09:31:16;;;;;;;1.85;0.98;;;;;;;18.95;42.71;99528.97;4482409;31;34724;-60
2023/04/18 09:33:55;;;;;;;3.87;1.25;;;;;;;18.62;43.43;99537.97;4482719;31;34014;-60
2023/04/18 09:36:26;;;;;;;2.10;1.10;;;;;;;18.24;43.44;99530.53;4479635;31;32716;-60
2023/04/18 09:38:54;;;;;;;1.75;1.02;;;;;;;18.09;44.91;99535.78;4483574;31;32650;-61
2023/04/18 09:41:23;;;;;;;0.55;0.52;;;;;;;19.00;42.57;99537.41;4487524;31;33426;-62
2023/04/18 09:44:10;;;;;;;0.80;0.60;;;;;;;18.94;42.70;99535.37;4483578;31;33456;-62
2023/04/18 09:46:42;;;;;;;1.37;1.00;;;;;;;19.14;42.98;99549.41;4482575;31;33711;-62
2023/04/18 09:49:13;;;;;;;2.22;1.23;;;;;;;19.09;42.38;99537.19;4479230;31;33444;-62
2023/04/18 09:51:43;;;;;;;3.58;1.12;;;;;;;18.96;42.48;99533.34;4481979;31;33913;-61
2023/04/18 09:54:14;;;;;;;1.17;0.70;;;;;;;18.53;43.93;99538.16;4482901;31;34011;-62
2023/04/18 09:56:44;;;;;;;2.03;1.15;;;;;;;18.61;43.35;99535.41;4480627;31;33590;-62
2023/04/18 09:59:11;;;;;;;2.08;1.35;;;;;;;19.16;42.08;99540.06;4484059;31;34470;-68
2023/04/18 10:01:40;;;;;;;4.18;1.85;;;;;;;19.33;40.69;99543.56;4485240;31;33721;-61
2023/04/18 10:04:08;;;;;;;3.67;2.03;;;;;;;19.08;41.77;99537.38;4482236;31;33846;-62
2023/04/18 10:06:40;;;;;;;1.87;1.05;;;;;;;19.58;40.43;99533.41;4478773;31;33643;-62
2023/04/18 10:09:09;;;;;;;0.55;0.52;;;;;;;19.37;41.29;99533.22;4475656;31;33461;-62
2023/04/18 10:11:36;;;;;;;2.80;1.25;;;;;;;19.64;40.80;99530.03;4479691;31;34364;-62
2023/04/18 10:14:07;;;;;;;2.87;1.45;;;;;;;19.59;40.92;99534.28;4482002;31;33274;-61
2023/04/18 10:16:36;;;;;;;5.03;1.37;;;;;;;19.13;40.50;99531.41;4479047;31;34677;-62
2023/04/18 10:19:23;;;;;;;1.85;1.00;;;;;;;19.17;41.29;99532.78;4483458;31;32164;-62
2023/04/18 10:22:00;;;;;;;1.90;0.68;;;;;;;19.22;40.71;99525.78;4487068;31;33877;-62
2023/04/18 10:24:56;;;;;;;3.25;1.55;;;;;;;19.76;39.97;99536.75;4480821;31;33573;-62
2023/04/18 10:27:42;;;;;;;;;;;;;;;19.33;40.12;99532.72;4480981;31;33374;-61
2023/04/18 10:30:10;;;;;;;11.77;1.33;;;;;;;19.40;40.76;99530.16;4484195;31;32593;-61
2023/04/18 10:32:38;;;;;;;1.55;0.73;;;;;;;19.67;40.76;99526.13;4479562;31;33441;-62
2023/04/18 10:35:06;;;;;;;1.00;0.65;;;;;;;20.07;38.75;99527.72;4481044;31;33255;-62
2023/04/18 10:37:33;;;;;;;4.05;1.65;;;;;;;19.73;39.85;99534.41;4478533;31;33809;-62
2023/04/18 10:40:05;;;;;;;3.20;1.08;;;;;;;19.61;39.63;99524.09;4483082;31;33494;-62
2023/04/18 10:42:56;;;;;;;1.77;0.77;;;;;;;19.84;38.12;99522.31;4482415;31;33650;-61
2023/04/18 10:45:26;;;;;;;1.05;0.73;;;;;;;19.78;39.47;99529.28;4484765;31;34822;-61
2023/04/18 10:48:29;;;;;;;2.00;1.15;;;;;;;20.00;39.49;99527.63;4483860;31;34554;-61
2023/04/18 10:51:12;;;;;;;2.12;1.10;;;;;;;19.84;38.95;99522.31;4476840;31;33435;-62
2023/04/18 10:53:46;;;;;;;1.98;1.08;;;;;;;19.97;39.14;99521.69;4483905;31;32868;-61
2023/04/18 10:56:15;;;;;;;2.33;1.55;;;;;;;20.19;38.77;99520.84;4479195;31;33869;-62
2023/04/18 10:58:49;;;;;;;3.28;1.90;;;;;;;20.37;38.74;99523.22;4481577;31;32584;-61
2023/04/18 11:01:27;;;;;;;2.40;1.35;;;;;;;20.05;41.05;99518.91;4481781;31;33374;-61
2023/04/18 11:03:59;;;;;;;2.12;1.35;;;;;;;20.08;41.28;99523.97;4480498;31;32455;-61
2023/04/18 11:06:27;;;;;;;2.40;1.55;;;;;;;19.73;42.64;99522.69;4480195;31;33568;-61
2023/04/18 11:09:12;;;;;;;3.45;1.70;;;;;;;19.93;42.21;99517.62;4477990;31;33058;-62
2023/04/18 11:11:40;;;;;;;4.87;1.95;;;;;;;19.74;42.40;99518.94;4481107;31;33084;-61
2023/04/18 11:14:08;;;;;;;3.17;1.73;;;;;;;19.65;42.41;99514.63;4481765;31;33885;-61
2023/04/18 11:16:36;;;;;;;3.87;1.85;;;;;;;19.27;42.87;99514.44;4478977;31;32632;-62
2023/04/18 11:19:20;;;;;;;3.05;1.85;;;;;;;20.14;41.28;99508.84;4481283;31;33555;-61
2023/04/18 11:21:48;;;;;;;15.90;1.30;;;;;;;19.54;41.85;99513.94;4481041;31;34146;-62
2023/04/18 11:24:22;;;;;;;5.15;1.75;;;;;;;19.90;41.39;99512.56;4482519;31;33891;-62
2023/04/18 11:26:54;;;;;;;2.20;1.30;;;;;;;19.89;41.54;99511.72;4479528;31;34493;-62
2023/04/18 11:29:22;;;;;;;2.53;1.65;;;;;;;19.82;41.85;99508.03;4480719;31;35354;-62
2023/04/18 11:31:52;;;;;;;2.80;1.50;;;;;;;20.12;41.06;99519.03;4488086;31;34745;-62
2023/04/18 11:34:29;;;;;;;4.90;1.50;;;;;;;20.72;39.81;99522.78;4484742;31;33578;-60
2023/04/18 11:36:57;;;;;;;4.15;1.35;;;;;;;20.41;39.93;99524.56;4484033;31;35089;-60
2023/04/18 11:39:25;;;;;;;1.48;0.77;;;;;;;20.10;39.55;99518.38;4480532;31;33519;-61
2023/04/18 11:41:54;;;;;;;2.40;1.33;;;;;;;20.70;37.89;99523.78;4477050;31;33009;-61
2023/04/18 11:44:23;;;;;;;2.47;1.65;;;;;;;21.02;37.06;99520.91;4482794;31;34948;-61